sensor_id;sensor_type;location;lat;lon;timestamp;pressure;altitude;pressure_sealevel;temperature;humidity
72395;BME280;60384;48.152;11.614;2023-07-08T00:02:53;95902.47;;;22.31;47.24
72395;BME280;60384;48.152;11.614;2023-07-08T00:05:55;95896.63;;;22.29;47.32
72395;BME280;60384;48.152;11.614;2023-07-08T00:08:58;95902.44;;;22.27;47.51
72395;BME280;60384;48.152;11.614;2023-07-08T00:12:00;95903.59;;;22.22;47.72
72395;BME280;60384;48.152;11.614;2023-07-08T00:15:01;95897.38;;;22.18;47.30
72395;BME280;60384;48.152;11.614;2023-07-08T00:18:05;95891.53;;;22.16;47.54
72395;BME280;60384;48.152;11.614;2023-07-08T00:21:11;95894.25;;;22.13;47.01
72395;BME280;60384;48.152;11.614;2023-07-08T00:24:16;95885.31;;;22.12;47.52
72395;BME280;60384;48.152;11.614;2023-07-08T00:27:18;95878.31;;;22.11;47.54
72395;BME280;60384;48.152;11.614;2023-07-08T00:30:20;95878.31;;;22.11;47.41
72395;BME280;60384;48.152;11.614;2023-07-08T00:33:23;95885.69;;;22.07;47.33
72395;BME280;60384;48.152;11.614;2023-07-08T00:36:25;95885.69;;;22.04;46.95
72395;BME280;60384;48.152;11.614;2023-07-08T00:39:29;95884.50;;;22.01;47.17
72395;BME280;60384;48.152;11.614;2023-07-08T00:42:30;95877.50;;;21.97;47.13
72395;BME280;60384;48.152;11.614;2023-07-08T00:45:45;95882.13;;;21.93;47.58
72395;BME280;60384;48.152;11.614;2023-07-08T00:48:49;95887.91;;;21.88;47.31
72395;BME280;60384;48.152;11.614;2023-07-08T00:51:52;95894.13;;;21.81;47.41
72395;BME280;60384;48.152;11.614;2023-07-08T00:54:56;95891.38;;;21.74;47.64
72395;BME280;60384;48.152;11.614;2023-07-08T00:57:58;95895.63;;;21.71;47.41
72395;BME280;60384;48.152;11.614;2023-07-08T01:01:00;95891.34;;;21.67;47.46
72395;BME280;60384;48.152;11.614;2023-07-08T01:04:03;95890.19;;;21.64;47.25
72395;BME280;60384;48.152;11.614;2023-07-08T01:07:06;95882.03;;;21.64;47.44
72395;BME280;60384;48.152;11.614;2023-07-08T01:10:12;95877.34;;;21.58;47.80
72395;BME280;60384;48.152;11.614;2023-07-08T01:13:17;95884.31;;;21.55;47.45
72395;BME280;60384;48.152;11.614;2023-07-08T01:16:19;95878.50;;;21.57;47.72
72395;BME280;60384;48.152;11.614;2023-07-08T01:19:21;95881.97;;;21.54;47.44
72395;BME280;60384;48.152;11.614;2023-07-08T01:22:35;95881.97;;;21.54;47.32
72395;BME280;60384;48.152;11.614;2023-07-08T01:25:37;95889.34;;;21.53;47.44
72395;BME280;60384;48.152;11.614;2023-07-08T01:28:39;95891.25;;;21.49;47.58
72395;BME280;60384;48.152;11.614;2023-07-08T01:31:40;95890.47;;;21.49;47.62
72395;BME280;60384;48.152;11.614;2023-07-08T01:34:48;95880.00;;;21.47;47.58
72395;BME280;60384;48.152;11.614;2023-07-08T01:38:01;95889.69;;;21.44;47.66
72395;BME280;60384;48.152;11.614;2023-07-08T01:41:05;95897.06;;;21.40;47.46
72395;BME280;60384;48.152;11.614;2023-07-08T01:44:18;95897.78;;;21.34;47.64
72395;BME280;60384;48.152;11.614;2023-07-08T01:47:20;95898.50;;;21.24;47.73
72395;BME280;60384;48.152;11.614;2023-07-08T01:50:24;95884.09;;;21.20;47.69
72395;BME280;60384;48.152;11.614;2023-07-08T01:53:30;95884.09;;;21.20;47.86
72395;BME280;60384;48.152;11.614;2023-07-08T01:56:33;95875.56;;;21.18;47.80
72395;BME280;60384;48.152;11.614;2023-07-08T01:59:34;95871.28;;;21.17;47.83
72395;BME280;60384;48.152;11.614;2023-07-08T02:02:36;95875.94;;;21.16;47.86
72395;BME280;60384;48.152;11.614;2023-07-08T02:05:37;95880.94;;;21.14;47.71
72395;BME280;60384;48.152;11.614;2023-07-08T02:08:40;95875.13;;;21.12;47.84
72395;BME280;60384;48.152;11.614;2023-07-08T02:11:42;95879.34;;;21.06;47.81
72395;BME280;60384;48.152;11.614;2023-07-08T02:14:43;95870.78;;;21.04;47.74
72395;BME280;60384;48.152;11.614;2023-07-08T02:17:45;95873.50;;;21.00;47.91
72395;BME280;60384;48.152;11.614;2023-07-08T02:20:46;95874.09;;;20.80;48.19
72395;BME280;60384;48.152;11.614;2023-07-08T02:23:49;95877.81;;;20.57;48.50
72395;BME280;60384;48.152;11.614;2023-07-08T02:26:53;95878.50;;;20.47;48.64
72395;BME280;60384;48.152;11.614;2023-07-08T02:29:54;95875.25;;;20.31;48.69
72395;BME280;60384;48.152;11.614;2023-07-08T02:32:56;95870.06;;;20.19;48.86
72395;BME280;60384;48.152;11.614;2023-07-08T02:35:58;95882.41;;;20.09;48.89
72395;BME280;60384;48.152;11.614;2023-07-08T02:39:01;95871.50;;;20.06;48.78
72395;BME280;60384;48.152;11.614;2023-07-08T02:42:02;95862.56;;;20.05;48.72
72395;BME280;60384;48.152;11.614;2023-07-08T02:45:05;95868.44;;;20.11;48.68
72395;BME280;60384;48.152;11.614;2023-07-08T02:48:06;95863.44;;;20.16;48.59
72395;BME280;60384;48.152;11.614;2023-07-08T02:51:08;95878.63;;;20.21;48.57
72395;BME280;60384;48.152;11.614;2023-07-08T02:54:11;95869.31;;;20.22;48.33
72395;BME280;60384;48.152;11.614;2023-07-08T02:57:13;95874.69;;;20.15;48.47
72395;BME280;60384;48.152;11.614;2023-07-08T03:00:15;95881.94;;;20.04;48.59
72395;BME280;60384;48.152;11.614;2023-07-08T03:03:16;95884.66;;;20.04;48.65
72395;BME280;60384;48.152;11.614;2023-07-08T03:06:19;95885.06;;;20.06;48.44
72395;BME280;60384;48.152;11.614;2023-07-08T03:09:23;95880.03;;;20.08;48.38
72395;BME280;60384;48.152;11.614;2023-07-08T03:12:24;95874.25;;;20.09;48.34
72395;BME280;60384;48.152;11.614;2023-07-08T03:15:26;95881.19;;;20.07;48.52
72395;BME280;60384;48.152;11.614;2023-07-08T03:18:28;95874.97;;;20.06;48.26
72395;BME280;60384;48.152;11.614;2023-07-08T03:21:30;95873.06;;;20.07;48.35
72395;BME280;60384;48.152;11.614;2023-07-08T03:24:33;95878.81;;;20.02;48.52
72395;BME280;60384;48.152;11.614;2023-07-08T03:27:37;95879.16;;;19.97;48.67
72395;BME280;60384;48.152;11.614;2023-07-08T03:30:39;95877.13;;;19.90;48.71
72395;BME280;60384;48.152;11.614;2023-07-08T03:33:42;95868.13;;;19.83;48.69
72395;BME280;60384;48.152;11.614;2023-07-08T03:36:44;95873.16;;;19.80;48.79
72395;BME280;60384;48.152;11.614;2023-07-08T03:39:51;95859.97;;;19.79;48.80
72395;BME280;60384;48.152;11.614;2023-07-08T03:42:52;95864.19;;;19.76;48.85
72395;BME280;60384;48.152;11.614;2023-07-08T03:45:54;95866.91;;;19.76;48.79
72395;BME280;60384;48.152;11.614;2023-07-08T03:48:57;95868.47;;;19.77;48.73
72395;BME280;60384;48.152;11.614;2023-07-08T03:51:58;95860.41;;;19.81;48.90
72395;BME280;60384;48.152;11.614;2023-07-08T03:55:01;95861.94;;;19.82;48.74
72395;BME280;60384;48.152;11.614;2023-07-08T03:58:04;95861.56;;;19.84;48.81
72395;BME280;60384;48.152;11.614;2023-07-08T04:01:09;95861.94;;;19.82;48.76
72395;BME280;60384;48.152;11.614;2023-07-08T04:04:16;95869.69;;;19.84;48.75
72395;BME280;60384;48.152;11.614;2023-07-08T04:07:18;95871.31;;;19.88;48.71
72395;BME280;60384;48.152;11.614;2023-07-08T04:10:21;95869.34;;;19.85;48.75
72395;BME280;60384;48.152;11.614;2023-07-08T04:13:22;95877.91;;;19.87;48.70
72395;BME280;60384;48.152;11.614;2023-07-08T04:16:25;95871.72;;;19.90;48.76
72395;BME280;60384;48.152;11.614;2023-07-08T04:19:28;95877.16;;;19.94;48.73
72395;BME280;60384;48.152;11.614;2023-07-08T04:22:29;95872.16;;;19.96;48.67
72395;BME280;60384;48.152;11.614;2023-07-08T04:25:32;95882.22;;;19.95;48.74
72395;BME280;60384;48.152;11.614;2023-07-08T04:28:34;95878.72;;;19.95;48.72
72395;BME280;60384;48.152;11.614;2023-07-08T04:31:35;95874.47;;;19.94;48.91
72395;BME280;60384;48.152;11.614;2023-07-08T04:34:37;95869.81;;;19.94;49.00
72395;BME280;60384;48.152;11.614;2023-07-08T04:37:38;95875.22;;;19.91;49.07
72395;BME280;60384;48.152;11.614;2023-07-08T04:40:41;95876.78;;;19.92;49.02
72395;BME280;60384;48.152;11.614;2023-07-08T04:43:43;95884.91;;;19.92;49.12
72395;BME280;60384;48.152;11.614;2023-07-08T04:46:45;95894.19;;;19.91;49.02
72395;BME280;60384;48.152;11.614;2023-07-08T04:49:47;95900.03;;;19.93;49.00
72395;BME280;60384;48.152;11.614;2023-07-08T04:52:49;95904.69;;;19.92;48.96
72395;BME280;60384;48.152;11.614;2023-07-08T04:55:52;95918.28;;;19.96;48.94
72395;BME280;60384;48.152;11.614;2023-07-08T04:58:55;95918.28;;;19.96;49.10
72395;BME280;60384;48.152;11.614;2023-07-08T05:01:56;95929.88;;;19.93;49.05
72395;BME280;60384;48.152;11.614;2023-07-08T05:04:58;95935.22;;;19.89;49.33
72395;BME280;60384;48.152;11.614;2023-07-08T05:07:59;95940.28;;;19.91;49.17
72395;BME280;60384;48.152;11.614;2023-07-08T05:11:02;95927.94;;;19.93;49.18
72395;BME280;60384;48.152;11.614;2023-07-08T05:14:04;95927.56;;;19.95;49.14
72395;BME280;60384;48.152;11.614;2023-07-08T05:17:06;95939.25;;;19.99;49.23
72395;BME280;60384;48.152;11.614;2023-07-08T05:20:09;95941.94;;;19.99;49.17
72395;BME280;60384;48.152;11.614;2023-07-08T05:23:11;95944.66;;;19.99;49.11
72395;BME280;60384;48.152;11.614;2023-07-08T05:26:14;95949.69;;;20.00;49.16
72395;BME280;60384;48.152;11.614;2023-07-08T05:29:16;95938.91;;;20.04;49.03
72395;BME280;60384;48.152;11.614;2023-07-08T05:32:17;95943.50;;;20.00;49.27
72395;BME280;60384;48.152;11.614;2023-07-08T05:35:19;95945.81;;;19.98;49.28
72395;BME280;60384;48.152;11.614;2023-07-08T05:38:21;95952.38;;;19.97;49.44
72395;BME280;60384;48.152;11.614;2023-07-08T05:41:24;95946.53;;;19.95;49.46
72395;BME280;60384;48.152;11.614;2023-07-08T05:44:26;95934.56;;;19.99;49.44
72395;BME280;60384;48.152;11.614;2023-07-08T05:47:27;95926.84;;;20.01;49.49
72395;BME280;60384;48.152;11.614;2023-07-08T05:50:29;95923.31;;;19.97;49.27
72395;BME280;60384;48.152;11.614;2023-07-08T05:53:30;95921.06;;;20.03;49.52
72395;BME280;60384;48.152;11.614;2023-07-08T05:56:33;95923.09;;;20.13;49.34
72395;BME280;60384;48.152;11.614;2023-07-08T05:59:35;95920.13;;;20.21;49.32
72395;BME280;60384;48.152;11.614;2023-07-08T06:02:38;95905.81;;;20.28;49.32
72395;BME280;60384;48.152;11.614;2023-07-08T06:05:40;95923.75;;;20.33;49.23
72395;BME280;60384;48.152;11.614;2023-07-08T06:08:42;95929.97;;;20.37;49.25
72395;BME280;60384;48.152;11.614;2023-07-08T06:11:45;95933.50;;;20.41;49.33
72395;BME280;60384;48.152;11.614;2023-07-08T06:14:47;95926.56;;;20.43;49.28
72395;BME280;60384;48.152;11.614;2023-07-08T06:17:48;95922.69;;;20.44;49.39
72395;BME280;60384;48.152;11.614;2023-07-08T06:20:50;95923.88;;;20.47;49.43
72395;BME280;60384;48.152;11.614;2023-07-08T06:23:52;95925.06;;;20.49;49.69
72395;BME280;60384;48.152;11.614;2023-07-08T06:26:55;95926.28;;;20.55;49.47
72395;BME280;60384;48.152;11.614;2023-07-08T06:29:56;95925.94;;;20.60;49.62
72395;BME280;60384;48.152;11.614;2023-07-08T06:32:58;95919.81;;;20.67;49.43
72395;BME280;60384;48.152;11.614;2023-07-08T06:36:00;95907.44;;;20.73;49.47
72395;BME280;60384;48.152;11.614;2023-07-08T06:39:01;95913.31;;;20.79;49.43
72395;BME280;60384;48.152;11.614;2023-07-08T06:42:05;95921.47;;;20.82;49.55
72395;BME280;60384;48.152;11.614;2023-07-08T06:45:08;95929.63;;;20.86;49.55
72395;BME280;60384;48.152;11.614;2023-07-08T06:48:09;95928.13;;;20.88;49.66
72395;BME280;60384;48.152;11.614;2023-07-08T06:51:11;95928.50;;;20.90;49.49
72395;BME280;60384;48.152;11.614;2023-07-08T06:54:12;95929.69;;;20.93;49.84
72395;BME280;60384;48.152;11.614;2023-07-08T06:57:15;95930.91;;;20.95;49.85
72395;BME280;60384;48.152;11.614;2023-07-08T07:00:17;95939.47;;;21.01;49.83
72395;BME280;60384;48.152;11.614;2023-07-08T07:03:18;95937.56;;;21.05;49.93
72395;BME280;60384;48.152;11.614;2023-07-08T07:06:20;95932.53;;;21.07;49.92
72395;BME280;60384;48.152;11.614;2023-07-08T07:09:22;95937.63;;;21.12;50.07
72395;BME280;60384;48.152;11.614;2023-07-08T07:12:26;95937.28;;;21.17;49.95
72395;BME280;60384;48.152;11.614;2023-07-08T07:15:28;95929.94;;;21.21;49.83
72395;BME280;60384;48.152;11.614;2023-07-08T07:18:30;95930.72;;;21.25;50.15
72395;BME280;60384;48.152;11.614;2023-07-08T07:21:32;95935.44;;;21.32;49.94
72395;BME280;60384;48.152;11.614;2023-07-08T07:24:33;95936.63;;;21.34;50.13
72395;BME280;60384;48.152;11.614;2023-07-08T07:27:36;95930.84;;;21.39;50.24
72395;BME280;60384;48.152;11.614;2023-07-08T07:30:37;95939.41;;;21.45;50.14
72395;BME280;60384;48.152;11.614;2023-07-08T07:33:39;95931.28;;;21.52;50.00
72395;BME280;60384;48.152;11.614;2023-07-08T07:36:41;95935.59;;;21.57;50.02
72395;BME280;60384;48.152;11.614;2023-07-08T07:39:42;95937.53;;;21.60;49.91
72395;BME280;60384;48.152;11.614;2023-07-08T07:42:46;95940.28;;;21.63;50.03
72395;BME280;60384;48.152;11.614;2023-07-08T07:45:49;95946.53;;;21.67;50.01
72395;BME280;60384;48.152;11.614;2023-07-08T07:48:50;95963.66;;;21.75;50.47
72395;BME280;60384;48.152;11.614;2023-07-08T07:51:52;95965.19;;;21.76;50.39
72395;BME280;60384;48.152;11.614;2023-07-08T07:54:54;95967.91;;;21.76;50.27
72395;BME280;60384;48.152;11.614;2023-07-08T07:57:57;95971.81;;;21.78;50.23
72395;BME280;60384;48.152;11.614;2023-07-08T08:00:58;95980.00;;;21.82;50.13
72395;BME280;60384;48.152;11.614;2023-07-08T08:04:00;95987.03;;;21.87;49.98
72395;BME280;60384;48.152;11.614;2023-07-08T08:07:02;95989.38;;;21.92;50.10
72395;BME280;60384;48.152;11.614;2023-07-08T08:10:03;95998.38;;;21.99;50.43
72395;BME280;60384;48.152;11.614;2023-07-08T08:13:06;95993.75;;;22.07;50.08
72395;BME280;60384;48.152;11.614;2023-07-08T08:16:08;95996.13;;;22.15;50.08
72395;BME280;60384;48.152;11.614;2023-07-08T08:19:10;95997.31;;;22.21;50.30
72395;BME280;60384;48.152;11.614;2023-07-08T08:22:11;95996.97;;;22.27;50.39
72395;BME280;60384;48.152;11.614;2023-07-08T08:25:14;96013.69;;;22.32;50.06
72395;BME280;60384;48.152;11.614;2023-07-08T08:28:17;96020.72;;;22.37;50.40
72395;BME280;60384;48.152;11.614;2023-07-08T08:31:18;96026.94;;;22.41;50.58
72395;BME280;60384;48.152;11.614;2023-07-08T08:34:20;96030.06;;;22.43;50.52
72395;BME280;60384;48.152;11.614;2023-07-08T08:37:21;96022.31;;;22.48;50.30
72395;BME280;60384;48.152;11.614;2023-07-08T08:40:23;96029.31;;;22.53;50.05
72395;BME280;60384;48.152;11.614;2023-07-08T08:43:28;96018.41;;;22.56;50.09
72395;BME280;60384;48.152;11.614;2023-07-08T08:46:34;96021.56;;;22.58;50.09
72395;BME280;60384;48.152;11.614;2023-07-08T08:49:41;96010.28;;;22.60;50.08
72395;BME280;60384;48.152;11.614;2023-07-08T08:52:45;96020.78;;;22.65;50.40
72395;BME280;60384;48.152;11.614;2023-07-08T08:55:49;96011.47;;;22.70;50.33
72395;BME280;60384;48.152;11.614;2023-07-08T08:58:55;96008.34;;;22.71;50.50
72395;BME280;60384;48.152;11.614;2023-07-08T09:01:59;96014.63;;;22.75;50.51
72395;BME280;60384;48.152;11.614;2023-07-08T09:05:03;96017.75;;;22.81;50.10
72395;BME280;60384;48.152;11.614;2023-07-08T09:08:08;96008.41;;;22.82;50.18
72395;BME280;60384;48.152;11.614;2023-07-08T09:11:27;96016.56;;;22.85;50.20
72395;BME280;60384;48.152;11.614;2023-07-08T09:14:37;96023.19;;;22.91;50.36
72395;BME280;60384;48.152;11.614;2023-07-08T09:17:40;96018.53;;;22.95;50.47
72395;BME280;60384;48.152;11.614;2023-07-08T09:20:41;96031.78;;;22.97;50.08
72395;BME280;60384;48.152;11.614;2023-07-08T09:23:44;96039.56;;;22.98;50.18
72395;BME280;60384;48.152;11.614;2023-07-08T09:26:46;96034.13;;;23.02;50.23
72395;BME280;60384;48.152;11.614;2023-07-08T09:29:51;96029.47;;;23.06;50.20
72395;BME280;60384;48.152;11.614;2023-07-08T09:32:52;96034.13;;;23.09;50.00
72395;BME280;60384;48.152;11.614;2023-07-08T09:35:54;96030.25;;;23.10;50.06
72395;BME280;60384;48.152;11.614;2023-07-08T09:38:55;96039.97;;;23.15;50.05
72395;BME280;60384;48.152;11.614;2023-07-08T09:41:57;96031.03;;;23.18;50.25
72395;BME280;60384;48.152;11.614;2023-07-08T09:45:12;96034.16;;;23.23;50.22
72395;BME280;60384;48.152;11.614;2023-07-08T09:48:15;96033.34;;;23.26;50.14
72395;BME280;60384;48.152;11.614;2023-07-08T09:51:16;96028.28;;;23.32;50.08
72395;BME280;60384;48.152;11.614;2023-07-08T09:54:18;96025.19;;;23.37;50.12
72395;BME280;60384;48.152;11.614;2023-07-08T09:57:26;96018.94;;;23.43;50.11
72395;BME280;60384;48.152;11.614;2023-07-08T10:00:32;96020.50;;;23.44;50.00
72395;BME280;60384;48.152;11.614;2023-07-08T10:03:34;96027.16;;;23.47;50.10
72395;BME280;60384;48.152;11.614;2023-07-08T10:06:36;96020.91;;;23.50;50.33
72395;BME280;60384;48.152;11.614;2023-07-08T10:09:38;96024.44;;;23.58;50.17
72395;BME280;60384;48.152;11.614;2023-07-08T10:12:41;96031.03;;;23.64;49.82
72395;BME280;60384;48.152;11.614;2023-07-08T10:15:49;96032.59;;;23.72;49.88
72395;BME280;60384;48.152;11.614;2023-07-08T10:18:53;96037.66;;;23.73;49.82
72395;BME280;60384;48.152;11.614;2023-07-08T10:21:59;96041.53;;;23.79;50.15
72395;BME280;60384;48.152;11.614;2023-07-08T10:25:16;96048.16;;;23.85;49.71
72395;BME280;60384;48.152;11.614;2023-07-08T10:28:26;96050.88;;;23.89;50.17
72395;BME280;60384;48.152;11.614;2023-07-08T10:31:31;96050.84;;;23.93;50.04
72395;BME280;60384;48.152;11.614;2023-07-08T10:34:36;96048.13;;;23.96;49.98
72395;BME280;60384;48.152;11.614;2023-07-08T10:37:45;96045.00;;;24.01;49.83
72395;BME280;60384;48.152;11.614;2023-07-08T10:40:49;96042.63;;;24.10;49.57
72395;BME280;60384;48.152;11.614;2023-07-08T10:43:57;96054.75;;;24.20;49.60
72395;BME280;60384;48.152;11.614;2023-07-08T10:47:04;96040.28;;;24.23;49.66
72395;BME280;60384;48.152;11.614;2023-07-08T10:50:15;96038.31;;;24.31;49.67
72395;BME280;60384;48.152;11.614;2023-07-08T10:53:35;96037.88;;;24.43;49.81
72395;BME280;60384;48.152;11.614;2023-07-08T10:56:39;96033.94;;;24.54;49.51
72395;BME280;60384;48.152;11.614;2023-07-08T10:59:47;96036.59;;;24.65;49.65
72395;BME280;60384;48.152;11.614;2023-07-08T11:03:05;96039.28;;;24.76;49.57
72395;BME280;60384;48.152;11.614;2023-07-08T11:06:15;96026.72;;;24.85;49.49
72395;BME280;60384;48.152;11.614;2023-07-08T11:09:21;96027.84;;;24.95;49.53
72395;BME280;60384;48.152;11.614;2023-07-08T11:12:25;96027.03;;;25.05;49.64
72395;BME280;60384;48.152;11.614;2023-07-08T11:15:31;96021.47;;;25.12;49.65
72395;BME280;60384;48.152;11.614;2023-07-08T11:18:39;96026.53;;;25.17;49.45
72395;BME280;60384;48.152;11.614;2023-07-08T11:21:41;96028.03;;;25.25;49.41
72395;BME280;60384;48.152;11.614;2023-07-08T11:24:45;96026.38;;;25.35;49.42
72395;BME280;60384;48.152;11.614;2023-07-08T11:27:48;96015.00;;;25.43;49.35
72395;BME280;60384;48.152;11.614;2023-07-08T11:30:51;96023.16;;;25.50;49.54
72395;BME280;60384;48.152;11.614;2023-07-08T11:33:54;96014.50;;;25.56;49.56
72395;BME280;60384;48.152;11.614;2023-07-08T12:42:59;95976.28;;;27.07;49.35
72395;BME280;60384;48.152;11.614;2023-07-08T12:46:01;95972.97;;;27.20;48.78
72395;BME280;60384;48.152;11.614;2023-07-08T12:49:04;95981.09;;;27.27;49.00
72395;BME280;60384;48.152;11.614;2023-07-08T12:52:05;95979.41;;;27.33;48.59
72395;BME280;60384;48.152;11.614;2023-07-08T12:55:08;95979.22;;;27.43;48.65
72395;BME280;60384;48.152;11.614;2023-07-08T12:58:12;95980.72;;;27.48;48.60
72395;BME280;60384;48.152;11.614;2023-07-08T13:01:15;95987.31;;;27.54;47.93
72395;BME280;60384;48.152;11.614;2023-07-08T13:04:17;95976.31;;;27.54;48.63
72395;BME280;60384;48.152;11.614;2023-07-08T13:07:21;95979.72;;;27.62;48.64
72395;BME280;60384;48.152;11.614;2023-07-08T13:10:25;95972.84;;;27.73;48.60
72395;BME280;60384;48.152;11.614;2023-07-08T13:13:30;95978.75;;;27.91;48.41
72395;BME280;60384;48.152;11.614;2023-07-08T13:16:33;95979.19;;;28.13;48.73
72395;BME280;60384;48.152;11.614;2023-07-08T13:19:35;95976.81;;;28.31;48.66
72395;BME280;60384;48.152;11.614;2023-07-08T13:22:37;95981.69;;;28.44;48.52
72395;BME280;60384;48.152;11.614;2023-07-08T13:25:38;95976.03;;;28.51;48.55
72395;BME280;60384;48.152;11.614;2023-07-08T13:28:41;95986.53;;;28.56;48.75
72395;BME280;60384;48.152;11.614;2023-07-08T13:31:47;95980.78;;;28.66;48.86
72395;BME280;60384;48.152;11.614;2023-07-08T13:34:49;95977.00;;;28.80;48.75
72395;BME280;60384;48.152;11.614;2023-07-08T13:37:51;95968.41;;;28.94;48.84
72395;BME280;60384;48.152;11.614;2023-07-08T13:40:53;95979.75;;;29.12;48.82
72395;BME280;60384;48.152;11.614;2023-07-08T13:43:58;95968.84;;;29.25;48.75
72395;BME280;60384;48.152;11.614;2023-07-08T13:47:18;95973.25;;;29.39;48.65
72395;BME280;60384;48.152;11.614;2023-07-08T13:50:22;95983.66;;;29.47;48.34
72395;BME280;60384;48.152;11.614;2023-07-08T13:53:27;95977.09;;;29.57;48.46
72395;BME280;60384;48.152;11.614;2023-07-08T13:56:30;95973.75;;;29.66;48.07
72395;BME280;60384;48.152;11.614;2023-07-08T13:59:33;95972.00;;;29.72;48.55
72395;BME280;60384;48.152;11.614;2023-07-08T14:02:35;95969.03;;;29.79;48.03
72395;BME280;60384;48.152;11.614;2023-07-08T14:05:40;95967.75;;;29.84;48.35
72395;BME280;60384;48.152;11.614;2023-07-08T14:08:42;95965.78;;;29.84;47.71
72395;BME280;60384;48.152;11.614;2023-07-08T14:11:44;95965.69;;;29.88;47.88
72395;BME280;60384;48.152;11.614;2023-07-08T14:14:47;95970.81;;;30.02;48.19
72395;BME280;60384;48.152;11.614;2023-07-08T14:17:48;95964.13;;;30.16;48.25
72395;BME280;60384;48.152;11.614;2023-07-08T14:20:51;95962.03;;;30.20;48.02
72395;BME280;60384;48.152;11.614;2023-07-08T14:23:54;95963.03;;;30.13;47.57
72395;BME280;60384;48.152;11.614;2023-07-08T14:26:55;95955.50;;;30.01;47.60
72395;BME280;60384;48.152;11.614;2023-07-08T14:29:58;95954.28;;;30.02;47.76
72395;BME280;60384;48.152;11.614;2023-07-08T14:32:59;95953.97;;;30.00;47.56
72395;BME280;60384;48.152;11.614;2023-07-08T14:36:01;95958.78;;;29.96;47.36
72395;BME280;60384;48.152;11.614;2023-07-08T14:39:08;95959.50;;;29.84;47.62
72395;BME280;60384;48.152;11.614;2023-07-08T14:42:11;95965.19;;;29.77;47.55
72395;BME280;60384;48.152;11.614;2023-07-08T14:45:15;95958.66;;;29.71;47.59
72395;BME280;60384;48.152;11.614;2023-07-08T14:48:16;95967.09;;;29.64;47.52
72395;BME280;60384;48.152;11.614;2023-07-08T14:51:18;95963.00;;;29.55;47.66
72395;BME280;60384;48.152;11.614;2023-07-08T14:54:20;95970.91;;;29.53;47.43
72395;BME280;60384;48.152;11.614;2023-07-08T14:57:26;95967.28;;;29.56;47.69
72395;BME280;60384;48.152;11.614;2023-07-08T15:00:33;95965.31;;;29.57;47.40
72395;BME280;60384;48.152;11.614;2023-07-08T15:03:35;95976.78;;;29.55;47.24
72395;BME280;60384;48.152;11.614;2023-07-08T15:06:36;95971.75;;;29.50;47.18
72395;BME280;60384;48.152;11.614;2023-07-08T15:09:38;95967.13;;;29.47;46.90
72395;BME280;60384;48.152;11.614;2023-07-08T15:12:39;95966.78;;;29.45;47.25
72395;BME280;60384;48.152;11.614;2023-07-08T15:15:42;95970.41;;;29.42;47.44
72395;BME280;60384;48.152;11.614;2023-07-08T15:18:44;95967.31;;;29.40;47.25
72395;BME280;60384;48.152;11.614;2023-07-08T15:21:45;95957.50;;;29.39;47.10
72395;BME280;60384;48.152;11.614;2023-07-08T15:24:47;95961.03;;;29.56;47.00
72395;BME280;60384;48.152;11.614;2023-07-08T15:27:50;95955.50;;;29.85;47.17
72395;BME280;60384;48.152;11.614;2023-07-08T15:30:53;95954.81;;;29.97;46.33
72395;BME280;60384;48.152;11.614;2023-07-08T15:33:55;95959.66;;;29.93;46.55
72395;BME280;60384;48.152;11.614;2023-07-08T15:36:56;95957.84;;;29.86;46.75
72395;BME280;60384;48.152;11.614;2023-07-08T15:39:58;95960.34;;;29.81;46.86
72395;BME280;60384;48.152;11.614;2023-07-08T15:43:00;95954.94;;;29.77;46.69
72395;BME280;60384;48.152;11.614;2023-07-08T15:46:03;95956.03;;;29.80;46.84
72395;BME280;60384;48.152;11.614;2023-07-08T15:49:09;95954.41;;;29.82;46.27
72395;BME280;60384;48.152;11.614;2023-07-08T15:52:11;95955.78;;;29.90;46.51
72395;BME280;60384;48.152;11.614;2023-07-08T15:55:14;95957.81;;;30.03;46.56
72395;BME280;60384;48.152;11.614;2023-07-08T15:58:20;95951.03;;;30.20;45.77
72395;BME280;60384;48.152;11.614;2023-07-08T16:01:24;95945.47;;;30.49;45.90
72395;BME280;60384;48.152;11.614;2023-07-08T16:04:28;95949.34;;;30.76;46.13
72395;BME280;60384;48.152;11.614;2023-07-08T16:07:32;95952.91;;;31.02;45.78
72395;BME280;60384;48.152;11.614;2023-07-08T16:10:34;95955.88;;;31.21;46.38
72395;BME280;60384;48.152;11.614;2023-07-08T16:13:37;95951.88;;;31.22;45.86
72395;BME280;60384;48.152;11.614;2023-07-08T16:16:41;95950.03;;;31.18;45.75
72395;BME280;60384;48.152;11.614;2023-07-08T16:19:43;95954.75;;;31.31;45.78
72395;BME280;60384;48.152;11.614;2023-07-08T16:22:45;95949.41;;;31.49;46.48
72395;BME280;60384;48.152;11.614;2023-07-08T16:25:47;95950.50;;;31.64;46.05
72395;BME280;60384;48.152;11.614;2023-07-08T16:28:49;95943.72;;;31.78;45.96
72395;BME280;60384;48.152;11.614;2023-07-08T16:31:54;95938.00;;;31.94;45.90
72395;BME280;60384;48.152;11.614;2023-07-08T16:34:56;95941.59;;;32.04;46.00
72395;BME280;60384;48.152;11.614;2023-07-08T16:37:58;95942.56;;;32.10;46.20
72395;BME280;60384;48.152;11.614;2023-07-08T16:40:59;95946.97;;;32.07;46.19
72395;BME280;60384;48.152;11.614;2023-07-08T16:44:01;95942.56;;;32.10;46.52
72395;BME280;60384;48.152;11.614;2023-07-08T16:47:04;95935.94;;;32.07;46.24
72395;BME280;60384;48.152;11.614;2023-07-08T16:50:06;95940.72;;;32.07;46.10
72395;BME280;60384;48.152;11.614;2023-07-08T16:53:09;95933.63;;;32.06;46.22
72395;BME280;60384;48.152;11.614;2023-07-08T16:56:11;95937.81;;;31.88;46.21
72395;BME280;60384;48.152;11.614;2023-07-08T16:59:14;95947.94;;;31.70;46.03
72395;BME280;60384;48.152;11.614;2023-07-08T17:02:17;95939.88;;;31.50;46.00
72395;BME280;60384;48.152;11.614;2023-07-08T17:05:20;95945.91;;;31.36;46.44